Time;durP1;ratioP1;P1;durP2;ratioP2;P2;SDS_P1;SDS_P2;PMS_P1;PMS_P2;Temp;Humidity;BMP_temperature;BMP_pressure;BME280_temperature;BME280_humidity;BME280_pressure;Samples;Min_cycle;Max_cycle;Signal;HPM_P1;HPM_P2
2023/06/10 00:00:41;;;;;;;12.43;4.82;;;;;;;14.33;73.77;101863.75;4998548;28;20038;-67
2023/06/10 00:03:06;;;;;;;11.93;4.07;;;;;;;14.29;74.61;101855.03;5014574;28;20033;-67
2023/06/10 00:05:31;;;;;;;12.88;4.53;;;;;;;14.32;73.54;101854.88;4998548;28;20021;-67
2023/06/10 00:07:57;;;;;;;9.52;5.32;;;;;;;14.17;73.68;101858.31;4998474;28;20026;-68
2023/06/10 00:10:24;;;;;;;10.00;4.60;;;;;;;14.19;74.21;101865.31;5016032;28;20036;-67
2023/06/10 00:12:51;;;;;;;10.13;4.80;;;;;;;14.22;74.35;101859.81;4998702;28;20079;-67
2023/06/10 00:15:16;;;;;;;13.30;5.20;;;;;;;14.05;74.08;101859.78;5015867;28;20025;-68
2023/06/10 00:17:43;;;;;;;11.57;4.78;;;;;;;14.23;74.31;101861.56;4997897;28;20029;-67
2023/06/10 00:20:11;;;;;;;9.73;4.72;;;;;;;14.05;74.17;101862.44;4997674;28;20529;-67
2023/06/10 00:22:37;;;;;;;8.07;4.50;;;;;;;13.96;73.94;101853.09;4998674;28;20339;-67
2023/06/10 00:25:03;;;;;;;9.75;5.05;;;;;;;13.85;74.35;101862.47;4997772;28;20030;-67
2023/06/10 00:27:34;;;;;;;10.82;5.10;;;;;;;13.92;73.19;101862.16;4997680;28;20048;-67
2023/06/10 00:30:04;;;;;;;8.68;4.70;;;;;;;13.88;73.12;101850.81;5015566;28;20502;-68
2023/06/10 00:32:30;;;;;;;8.73;4.70;;;;;;;13.81;74.57;101849.38;4998635;28;20225;-67
2023/06/10 00:34:55;;;;;;;10.48;5.35;;;;;;;13.79;73.10;101848.56;4997521;28;20115;-66
2023/06/10 00:37:21;;;;;;;13.57;4.55;;;;;;;13.75;72.62;101849.66;4997244;28;20486;-67
2023/06/10 00:39:46;;;;;;;7.30;4.60;;;;;;;13.71;73.41;101848.97;4997724;28;20077;-67
2023/06/10 00:42:11;;;;;;;8.63;4.00;;;;;;;13.84;72.84;101857.19;5015211;28;20038;-67
2023/06/10 00:44:37;;;;;;;8.73;3.92;;;;;;;13.65;73.34;101852.75;5015196;28;20033;-67
2023/06/10 00:47:03;;;;;;;13.85;4.57;;;;;;;13.58;73.60;101853.97;4998012;28;20091;-67
2023/06/10 00:49:28;;;;;;;9.75;3.95;;;;;;;13.70;72.17;101864.03;4997935;28;20497;-67
2023/06/10 00:51:54;;;;;;;11.95;4.30;;;;;;;13.55;72.25;101854.13;4997693;28;20028;-66
2023/06/10 00:54:19;;;;;;;14.60;4.72;;;;;;;13.60;72.83;101860.09;4997616;28;20469;-67
2023/06/10 00:56:46;;;;;;;12.05;4.78;;;;;;;13.59;72.72;101863.69;4981085;28;20029;-67
2023/06/10 00:59:14;;;;;;;10.38;4.03;;;;;;;13.61;72.69;101861.81;4997920;28;20026;-66
2023/06/10 01:01:39;;;;;;;10.13;4.07;;;;;;;13.67;71.97;101866.00;4981966;28;20034;-67
2023/06/10 01:04:05;;;;;;;10.20;4.30;;;;;;;13.58;72.21;101864.63;4997743;28;20036;-67
2023/06/10 01:06:47;;;;;;;10.23;4.03;;;;;;;13.49;73.10;101865.88;5015441;28;20028;-66
2023/06/10 01:09:45;;;;;;;9.15;3.47;;;;;;;13.61;71.72;101863.59;4998156;28;20029;-67
2023/06/10 01:12:21;;;;;;;8.90;3.88;;;;;;;13.55;72.02;101860.28;4998089;28;20057;-68
2023/06/10 01:14:48;;;;;;;9.18;3.92;;;;;;;13.43;72.59;101866.16;4997159;28;20026;-69
2023/06/10 01:17:16;;;;;;;11.80;4.55;;;;;;;13.39;72.27;101870.75;4981130;28;20026;-70
2023/06/10 01:19:43;;;;;;;9.38;3.95;;;;;;;13.41;72.01;101863.56;4997660;28;20022;-67
2023/06/10 01:22:10;;;;;;;8.55;3.40;;;;;;;13.32;71.88;101852.47;4981311;28;20037;-68
2023/06/10 01:24:36;;;;;;;8.80;4.30;;;;;;;13.41;72.63;101862.69;5014694;28;20422;-68
2023/06/10 01:27:06;;;;;;;9.77;4.28;;;;;;;13.27;72.81;101861.53;4996804;28;20030;-69
2023/06/10 01:29:39;;;;;;;7.18;3.58;;;;;;;13.23;72.97;101861.72;4980880;28;20034;-66
2023/06/10 01:32:09;;;;;;;9.38;3.83;;;;;;;13.31;72.96;101867.56;4997042;28;20022;-67
2023/06/10 01:34:35;;;;;;;9.68;4.03;;;;;;;13.28;72.84;101875.69;5014270;28;20101;-67
2023/06/10 01:37:02;;;;;;;10.70;3.85;;;;;;;13.10;73.33;101870.22;4996603;28;20473;-67
2023/06/10 01:39:28;;;;;;;8.68;3.72;;;;;;;13.10;73.21;101875.53;4980203;28;20056;-67
2023/06/10 01:41:54;;;;;;;5.70;3.75;;;;;;;13.12;73.42;101876.34;4980471;28;20471;-66
2023/06/10 01:44:20;;;;;;;10.13;4.78;;;;;;;13.06;72.76;101879.28;5014364;28;20144;-67
2023/06/10 01:46:46;;;;;;;7.82;3.55;;;;;;;13.06;73.01;101867.81;4980183;28;20022;-67
2023/06/10 01:49:11;;;;;;;6.72;3.72;;;;;;;13.15;72.46;101867.38;5013874;28;20068;-68
2023/06/10 01:51:37;;;;;;;11.90;4.28;;;;;;;13.07;72.65;101873.03;4996277;28;20426;-66
2023/06/10 01:54:02;;;;;;;10.80;4.00;;;;;;;13.09;72.86;101865.84;4996540;28;20053;-67
2023/06/10 01:56:27;;;;;;;9.85;4.15;;;;;;;13.00;72.61;101873.38;4996041;28;20037;-67
2023/06/10 01:58:58;;;;;;;8.05;3.78;;;;;;;12.94;73.10;101863.88;4996067;28;20467;-67
2023/06/10 02:01:24;;;;;;;8.60;3.53;;;;;;;13.14;72.26;101860.34;4996832;28;20445;-67
2023/06/10 02:03:49;;;;;;;10.35;4.28;;;;;;;12.97;72.72;101861.09;5014298;28;20037;-66
2023/06/10 02:06:14;;;;;;;6.13;3.53;;;;;;;13.01;72.15;101860.03;5013577;28;20049;-67
2023/06/10 02:08:40;;;;;;;8.80;3.53;;;;;;;13.04;72.29;101869.66;5013797;28;20026;-67
2023/06/10 02:11:07;;;;;;;5.72;3.60;;;;;;;12.98;72.30;101854.84;4979896;28;20448;-68
2023/06/10 02:13:32;;;;;;;10.82;4.00;;;;;;;12.86;72.80;101858.88;4979775;28;20052;-67
2023/06/10 02:15:57;;;;;;;6.90;3.60;;;;;;;12.95;72.77;101852.31;5013164;28;20061;-67
2023/06/10 02:18:23;;;;;;;8.73;3.25;;;;;;;12.98;72.02;101854.84;4995503;28;20037;-67
2023/06/10 02:20:48;;;;;;;10.55;3.58;;;;;;;12.88;72.78;101858.84;4995814;28;20459;-67
2023/06/10 02:23:14;;;;;;;5.35;3.38;;;;;;;12.98;72.19;101862.81;4979388;28;20022;-67
2023/06/10 02:25:39;;;;;;;13.20;3.60;;;;;;;12.95;71.81;101861.16;4995724;28;20113;-68
2023/06/10 02:28:05;;;;;;;8.57;3.63;;;;;;;13.05;71.52;101869.56;5012638;28;20033;-66
2023/06/10 02:30:30;;;;;;;11.05;3.55;;;;;;;13.20;71.31;101869.81;4995408;28;20410;-67
2023/06/10 02:32:56;;;;;;;8.27;3.55;;;;;;;13.01;71.25;101865.34;4995517;28;20410;-66
2023/06/10 02:35:22;;;;;;;6.55;3.25;;;;;;;12.94;72.25;101862.09;5012971;28;20124;-65
2023/06/10 02:37:47;;;;;;;13.18;4.03;;;;;;;12.96;71.67;101868.22;4995014;28;20464;-67
2023/06/10 02:40:13;;;;;;;5.55;3.08;;;;;;;12.83;72.19;101873.19;5012928;28;20132;-67
2023/06/10 02:42:38;;;;;;;6.80;2.72;;;;;;;12.83;72.30;101873.19;5012672;28;20026;-67
2023/06/10 02:45:04;;;;;;;11.75;3.30;;;;;;;12.97;71.39;101867.28;4995557;28;20132;-67
2023/06/10 02:47:30;;;;;;;8.40;3.55;;;;;;;12.85;72.10;101869.59;4994935;28;20123;-67
2023/06/10 02:49:55;;;;;;;7.18;3.00;;;;;;;12.84;72.31;101876.69;5012803;28;20030;-67
2023/06/10 02:52:20;;;;;;;5.20;2.80;;;;;;;12.90;72.08;101884.41;5012928;28;20390;-67
2023/06/10 02:54:46;;;;;;;8.68;3.00;;;;;;;12.90;71.88;101883.53;4995122;28;20057;-67
2023/06/10 02:57:11;;;;;;;7.63;2.83;;;;;;;12.88;72.05;101882.72;4995129;28;20045;-66
2023/06/10 02:59:36;;;;;;;9.10;3.28;;;;;;;12.78;72.13;101874.28;5012544;28;20030;-67
2023/06/10 03:02:02;;;;;;;7.18;3.05;;;;;;;12.78;72.11;101876.94;5011663;28;20018;-69
2023/06/10 03:04:28;;;;;;;7.07;2.85;;;;;;;12.79;72.05;101882.19;5010198;28;20036;-67
2023/06/10 03:06:54;;;;;;;7.43;2.70;;;;;;;12.73;72.38;101881.59;5052406;28;20032;-67
2023/06/10 03:09:19;;;;;;;7.68;2.72;;;;;;;12.78;72.47;101884.91;5034627;28;20025;-67
2023/06/10 03:11:45;;;;;;;8.95;3.75;;;;;;;12.75;72.04;101891.22;5034651;28;20029;-67
2023/06/10 03:14:10;;;;;;;6.55;2.78;;;;;;;12.75;72.61;101885.91;5052943;28;20828;-67
2023/06/10 03:16:35;;;;;;;8.05;2.90;;;;;;;12.78;72.14;101885.78;5035115;28;20033;-66
2023/06/10 03:19:01;;;;;;;9.10;2.70;;;;;;;12.81;72.27;101887.44;5035332;28;20021;-67
2023/06/10 03:21:26;;;;;;;7.65;3.00;;;;;;;12.82;72.65;101886.50;5017808;28;20035;-67
2023/06/10 03:23:52;;;;;;;8.05;3.15;;;;;;;12.74;72.20;101881.53;5034835;28;20024;-68
2023/06/10 03:26:17;;;;;;;8.32;3.08;;;;;;;12.80;72.70;101889.25;5052531;28;20044;-67
2023/06/10 03:28:42;;;;;;;6.80;2.97;;;;;;;12.74;72.73;101878.00;5034047;28;20096;-67
2023/06/10 03:31:08;;;;;;;7.50;2.70;;;;;;;12.78;72.85;101884.91;5034425;28;20036;-68
2023/06/10 03:33:33;;;;;;;6.88;3.00;;;;;;;12.76;72.31;101882.34;5034300;28;20052;-67
2023/06/10 03:35:59;;;;;;;5.85;2.65;;;;;;;12.95;71.52;101882.41;5052044;28;20470;-66
2023/06/10 03:38:24;;;;;;;10.50;3.00;;;;;;;12.82;72.28;101887.38;5033708;28;20061;-67
2023/06/10 03:40:50;;;;;;;4.53;2.58;;;;;;;12.82;71.91;101887.38;5017642;28;20036;-67
2023/06/10 03:43:15;;;;;;;6.95;3.00;;;;;;;12.80;72.80;101881.28;5033798;28;20059;-65
2023/06/10 03:45:41;;;;;;;9.93;3.38;;;;;;;13.04;72.02;101886.44;5033883;28;20024;-67
2023/06/10 03:48:08;;;;;;;8.32;3.00;;;;;;;12.92;72.23;101889.63;5034097;28;20017;-66
2023/06/10 03:50:34;;;;;;;6.57;3.10;;;;;;;12.86;71.65;101881.94;5034144;28;20162;-65
2023/06/10 03:52:59;;;;;;;7.53;2.83;;;;;;;12.94;72.10;101886.00;5033933;28;20033;-66
2023/06/10 03:55:24;;;;;;;8.07;3.30;;;;;;;12.92;72.75;101892.28;5033774;28;20021;-67
2023/06/10 03:57:50;;;;;;;7.60;2.97;;;;;;;12.86;71.92;101884.59;5051485;28;20450;-68
2023/06/10 04:00:17;;;;;;;4.82;2.70;;;;;;;12.95;71.98;101886.84;5033685;28;20496;-68
2023/06/10 04:02:45;;;;;;;8.18;2.78;;;;;;;13.06;71.65;101884.59;5034054;28;20082;-67
2023/06/10 04:05:15;;;;;;;7.78;3.20;;;;;;;13.03;71.28;101887.38;5034176;28;20028;-66
2023/06/10 04:07:42;;;;;;;9.00;2.75;;;;;;;13.02;71.65;101888.31;5033653;28;20017;-67
2023/06/10 04:10:08;;;;;;;10.30;3.72;;;;;;;13.06;71.51;101889.91;5033542;28;20024;-66
2023/06/10 04:12:34;;;;;;;9.43;2.72;;;;;;;13.07;71.75;101883.66;5020660;28;20028;-66
2023/06/10 04:15:00;;;;;;;8.30;3.10;;;;;;;13.16;72.13;101878.88;5037049;28;20492;-66
2023/06/10 04:17:25;;;;;;;9.20;3.53;;;;;;;13.16;71.78;101878.88;5055058;28;20474;-67
2023/06/10 04:19:51;;;;;;;5.63;2.65;;;;;;;13.21;70.84;101876.88;5037391;28;20066;-66
2023/06/10 04:22:17;;;;;;;6.90;3.05;;;;;;;13.20;70.84;101881.34;5037844;28;20016;-66
2023/06/10 04:24:43;;;;;;;7.88;2.80;;;;;;;13.25;71.38;101879.34;5055040;28;20128;-65
2023/06/10 04:27:08;;;;;;;10.70;2.85;;;;;;;13.26;71.23;101893.50;5054984;28;20035;-67
2023/06/10 04:29:34;;;;;;;8.13;2.97;;;;;;;13.32;71.29;101882.59;5054973;28;20029;-66
2023/06/10 04:32:00;;;;;;;4.57;2.22;;;;;;;13.41;71.02;101879.50;5037296;28;20025;-67
2023/06/10 04:34:25;;;;;;;6.53;3.17;;;;;;;13.40;71.34;101884.88;5055043;28;20440;-66
2023/06/10 04:36:50;;;;;;;9.55;3.58;;;;;;;13.48;70.30;101874.78;5054716;28;20028;-66
2023/06/10 04:39:16;;;;;;;9.93;2.63;;;;;;;13.47;70.19;101877.53;5036925;28;20099;-67
2023/06/10 04:41:42;;;;;;;9.85;2.55;;;;;;;13.48;70.07;101874.78;5054710;28;20021;-67
2023/06/10 04:44:07;;;;;;;6.10;2.67;;;;;;;13.54;70.39;101885.16;5037322;28;20044;-68
2023/06/10 04:46:33;;;;;;;10.27;3.10;;;;;;;13.79;69.49;101873.41;5053688;28;20128;-66
2023/06/10 04:48:58;;;;;;;8.10;3.13;;;;;;;13.65;69.57;101878.50;5054825;28;20032;-69
2023/06/10 04:51:23;;;;;;;7.50;2.70;;;;;;;13.61;71.03;101869.78;5036431;28;20049;-67
2023/06/10 04:53:49;;;;;;;8.40;2.70;;;;;;;13.96;69.73;101879.72;5053088;28;20025;-67
2023/06/10 04:56:15;;;;;;;8.73;2.80;;;;;;;13.76;70.01;101877.97;5036623;28;20021;-67
2023/06/10 04:58:40;;;;;;;8.55;3.03;;;;;;;13.81;69.18;101874.19;5053516;28;20028;-69
2023/06/10 05:01:06;;;;;;;8.85;3.35;;;;;;;13.86;69.84;101881.94;5036504;28;20051;-68
2023/06/10 05:03:31;;;;;;;8.38;2.55;;;;;;;13.88;69.90;101882.72;5053343;28;20107;-67
2023/06/10 05:05:56;;;;;;;11.77;2.83;;;;;;;13.91;69.06;101874.59;5054634;28;20025;-67
2023/06/10 05:08:22;;;;;;;11.35;2.97;;;;;;;14.04;69.45;101869.56;5036870;28;20465;-68
2023/06/10 05:10:47;;;;;;;9.45;3.17;;;;;;;14.06;68.63;101883.66;5036635;28;20025;-67
2023/06/10 05:13:12;;;;;;;7.30;2.55;;;;;;;14.06;69.03;101881.00;5054448;28;20436;-66
2023/06/10 05:15:38;;;;;;;7.00;2.40;;;;;;;14.21;68.77;101884.72;5019742;28;20075;-66
2023/06/10 05:18:03;;;;;;;6.75;2.67;;;;;;;14.40;68.20;101881.16;5053066;28;20442;-68
2023/06/10 05:20:28;;;;;;;7.70;2.90;;;;;;;14.20;68.78;101872.34;5019815;28;20403;-67
2023/06/10 05:22:54;;;;;;;8.20;2.72;;;;;;;14.43;68.96;101881.00;5036286;28;20051;-67
2023/06/10 05:25:19;;;;;;;11.55;2.85;;;;;;;14.52;67.22;101869.88;5053997;28;20377;-67
2023/06/10 05:27:45;;;;;;;7.50;2.20;;;;;;;14.93;67.06;101879.41;5054021;28;20032;-67
2023/06/10 05:30:11;;;;;;;9.18;2.63;;;;;;;14.68;67.63;101871.75;5053996;28;20028;-64
2023/06/10 05:32:36;;;;;;;10.13;2.20;;;;;;;14.60;67.12;101879.28;5020008;28;20492;-66
2023/06/10 05:35:03;;;;;;;7.07;2.95;;;;;;;14.58;67.05;101880.22;5035797;28;20069;-67
2023/06/10 05:37:28;;;;;;;7.97;2.50;;;;;;;14.68;67.13;101877.09;5036258;28;20032;-66
2023/06/10 05:39:54;;;;;;;14.65;3.30;;;;;;;14.71;67.27;101883.16;5019201;28;20048;-66
2023/06/10 05:42:19;;;;;;;5.70;2.67;;;;;;;14.81;66.67;101875.59;5036300;28;20073;-67
2023/06/10 05:44:45;;;;;;;10.75;2.95;;;;;;;14.86;67.32;101870.88;5036057;28;20103;-68
2023/06/10 05:47:10;;;;;;;7.47;2.33;;;;;;;14.99;66.94;101863.09;5053450;28;20043;-67
2023/06/10 05:49:35;;;;;;;9.80;3.38;;;;;;;14.99;66.75;101854.25;5053828;28;20052;-67
2023/06/10 05:52:01;;;;;;;7.32;3.28;;;;;;;15.10;66.74;101862.53;5019071;28;20052;-67
2023/06/10 05:54:26;;;;;;;9.57;2.80;;;;;;;15.26;66.28;101862.59;5018922;28;20029;-68
2023/06/10 05:56:52;;;;;;;8.32;2.45;;;;;;;15.22;65.44;101865.47;5035377;28;20055;-69
2023/06/10 05:59:17;;;;;;;9.43;2.58;;;;;;;15.05;66.58;101853.03;5035571;28;20047;-68
2023/06/10 06:01:42;;;;;;;12.63;2.85;;;;;;;15.26;65.51;101864.38;5035446;28;20467;-67
2023/06/10 06:04:07;;;;;;;9.65;2.92;;;;;;;15.23;65.07;101861.88;5053502;28;20390;-68
2023/06/10 06:06:33;;;;;;;10.65;3.58;;;;;;;15.54;64.92;101854.91;5053328;28;20433;-68
2023/06/10 06:08:58;;;;;;;5.93;2.50;;;;;;;15.52;64.49;101864.75;5035262;28;20064;-68
2023/06/10 06:11:25;;;;;;;15.50;2.80;;;;;;;15.74;64.56;101857.31;5035105;28;20025;-68
2023/06/10 06:13:50;;;;;;;6.55;2.33;;;;;;;15.62;65.13;101855.34;5053105;28;20086;-67
2023/06/10 06:16:18;;;;;;;7.10;2.50;;;;;;;15.58;64.80;101859.13;5052979;28;20029;-66
2023/06/10 06:18:43;;;;;;;8.68;2.47;;;;;;;15.74;64.61;101852.00;5018825;28;20028;-67
2023/06/10 06:21:08;;;;;;;8.43;2.67;;;;;;;15.81;64.81;101854.31;5053033;28;20024;-66
2023/06/10 06:23:34;;;;;;;6.18;2.70;;;;;;;15.87;63.86;101852.19;5018207;28;20035;-68
2023/06/10 06:25:59;;;;;;;9.18;2.20;;;;;;;15.90;63.59;101851.16;5051706;28;20031;-67
2023/06/10 06:28:28;;;;;;;10.75;3.40;;;;;;;15.87;64.28;101846.84;5034822;28;20032;-68
2023/06/10 06:30:55;;;;;;;8.40;2.65;;;;;;;15.96;63.67;101856.16;5052173;28;20025;-69
2023/06/10 06:33:20;;;;;;;9.23;2.67;;;;;;;16.22;63.29;101845.78;5052014;28;20021;-68
2023/06/10 06:35:46;;;;;;;7.68;2.50;;;;;;;16.20;63.04;101846.81;5052449;28;20021;-70
2023/06/10 06:38:11;;;;;;;9.13;3.03;;;;;;;16.41;62.57;101852.75;5034629;28;20060;-67
2023/06/10 06:40:36;;;;;;;5.70;2.53;;;;;;;16.32;62.81;101852.31;5018220;28;20114;-67
2023/06/10 06:43:02;;;;;;;10.60;3.08;;;;;;;16.33;62.87;101845.16;5034647;28;20020;-68
2023/06/10 06:45:27;;;;;;;7.75;2.78;;;;;;;16.47;62.48;101842.53;5051060;28;20021;-67
2023/06/10 06:47:53;;;;;;;6.97;2.70;;;;;;;16.54;61.86;101850.19;5034644;28;20063;-69
2023/06/10 06:50:18;;;;;;;8.75;2.85;;;;;;;16.85;61.03;101846.53;5018149;28;20405;-69
2023/06/10 06:52:44;;;;;;;8.18;2.63;;;;;;;16.54;61.67;101851.06;5052037;28;20028;-70
2023/06/10 06:55:09;;;;;;;9.88;3.03;;;;;;;16.47;62.25;101847.03;5033908;28;20032;-68
2023/06/10 06:57:34;;;;;;;6.63;2.63;;;;;;;16.66;61.61;101846.78;5052041;28;20025;-68
2023/06/10 06:59:59;;;;;;;7.25;2.75;;;;;;;16.67;61.79;101855.66;5052114;28;20124;-68
2023/06/10 07:02:25;;;;;;;9.90;2.97;;;;;;;17.07;60.46;101847.97;5034174;28;20028;-67
2023/06/10 07:04:50;;;;;;;13.18;3.28;;;;;;;17.23;60.33;101860.38;5052404;28;20458;-70
2023/06/10 07:07:16;;;;;;;8.30;2.67;;;;;;;17.10;60.22;101853.13;5052391;28;20790;-70
2023/06/10 07:09:41;;;;;;;5.68;3.00;;;;;;;17.12;59.83;101855.69;5034353;28;20112;-68
2023/06/10 07:12:07;;;;;;;10.32;2.95;;;;;;;17.11;60.05;101851.28;5050920;28;20021;-68
2023/06/10 07:14:32;;;;;;;7.25;3.08;;;;;;;17.42;59.26;101852.91;5034143;28;20421;-68
2023/06/10 07:16:58;;;;;;;7.28;2.70;;;;;;;17.32;60.02;101857.97;5034032;28;20033;-69
2023/06/10 07:19:23;;;;;;;6.43;2.40;;;;;;;17.30;60.29;101859.03;5052015;28;20055;-68
2023/06/10 07:21:48;;;;;;;10.85;2.60;;;;;;;17.74;58.27;101866.03;5034460;28;20051;-68
2023/06/10 07:24:14;;;;;;;6.22;2.53;;;;;;;17.42;59.50;101868.97;5033925;28;20359;-66
2023/06/10 07:26:39;;;;;;;11.55;2.97;;;;;;;17.71;58.89;101868.91;5034352;28;20021;-68
2023/06/10 07:29:05;;;;;;;10.57;2.92;;;;;;;17.74;58.07;101863.38;5033991;28;20032;-70
2023/06/10 07:31:30;;;;;;;8.35;3.10;;;;;;;17.68;58.18;101861.09;5050463;28;20025;-68
2023/06/10 07:33:55;;;;;;;11.13;3.10;;;;;;;17.98;58.20;101868.13;5034287;28;20520;-68
2023/06/10 07:36:21;;;;;;;10.15;3.05;;;;;;;18.21;56.87;101861.28;5051973;28;20056;-67
2023/06/10 07:38:46;;;;;;;6.55;2.85;;;;;;;18.07;56.64;101864.00;5017557;28;20064;-67
2023/06/10 07:41:12;;;;;;;5.45;2.80;;;;;;;18.53;56.08;101865.44;5034168;28;20021;-69
2023/06/10 07:43:38;;;;;;;8.13;3.15;;;;;;;18.50;57.02;101854.91;5051910;28;20020;-71
2023/06/10 07:46:05;;;;;;;7.93;2.67;;;;;;;18.45;55.96;101863.28;5053940;28;20025;-68
2023/06/10 07:48:30;;;;;;;9.10;2.90;;;;;;;18.52;56.68;101858.34;5054982;28;20021;-66
2023/06/10 07:50:56;;;;;;;6.10;2.60;;;;;;;18.89;56.28;101855.84;5056149;28;20120;-70
2023/06/10 07:53:21;;;;;;;5.70;2.60;;;;;;;18.88;56.08;101854.13;5055797;28;20082;-68
2023/06/10 07:55:46;;;;;;;8.50;3.50;;;;;;;18.97;55.67;101859.81;5056090;28;20033;-68
2023/06/10 07:58:12;;;;;;;5.30;2.95;;;;;;;18.82;55.33;101853.69;5037911;28;20028;-67
2023/06/10 08:00:37;;;;;;;7.88;3.13;;;;;;;18.79;55.33;101855.63;5038102;28;20253;-69
2023/06/10 08:03:02;;;;;;;7.55;2.85;;;;;;;19.17;54.52;101848.56;5038090;28;20029;-68
2023/06/10 08:05:28;;;;;;;6.38;3.00;;;;;;;19.19;54.42;101846.66;5055897;28;20094;-67
2023/06/10 08:07:53;;;;;;;5.22;2.80;;;;;;;19.33;54.22;101842.16;5055843;28;20104;-66
2023/06/10 08:10:18;;;;;;;8.45;3.17;;;;;;;19.28;54.29;101845.16;5037967;28;20147;-67
2023/06/10 08:12:43;;;;;;;8.52;3.10;;;;;;;19.56;54.00;101845.00;5055568;28;20063;-67
2023/06/10 08:15:09;;;;;;;8.38;3.30;;;;;;;19.75;52.85;101849.88;5055532;28;20477;-66
2023/06/10 08:17:35;;;;;;;5.57;3.08;;;;;;;19.81;53.38;101855.66;5055463;28;20562;-68
2023/06/10 08:20:01;;;;;;;9.55;3.70;;;;;;;19.66;53.45;101848.72;5055282;28;20024;-67
2023/06/10 08:22:29;;;;;;;5.68;3.00;;;;;;;19.98;52.35;101853.56;5021212;28;20048;-67
2023/06/10 08:24:54;;;;;;;8.85;3.25;;;;;;;20.02;52.24;101849.69;5021458;28;20111;-67
2023/06/10 08:27:20;;;;;;;14.15;4.07;;;;;;;20.01;52.48;101847.97;5055380;28;20089;-67
2023/06/10 08:29:45;;;;;;;8.65;2.80;;;;;;;20.19;52.37;101851.13;5020603;28;20047;-67
2023/06/10 08:32:10;;;;;;;8.13;3.05;;;;;;;20.39;51.39;101852.31;5037157;28;20143;-67
2023/06/10 08:34:36;;;;;;;9.68;3.42;;;;;;;20.31;51.76;101849.34;5037249;28;20033;-67
2023/06/10 08:37:02;;;;;;;7.82;2.90;;;;;;;20.74;51.10;101855.09;5037734;28;20537;-67
2023/06/10 08:39:31;;;;;;;6.93;2.90;;;;;;;20.78;50.73;101856.56;5034030;28;20441;-68
2023/06/10 08:42:23;;;;;;;8.88;3.38;;;;;;;20.97;50.45;101848.84;5033856;28;20029;-67
2023/06/10 08:44:53;;;;;;;6.80;3.28;;;;;;;21.10;49.58;101845.19;5017174;28;20540;-68
2023/06/10 08:47:19;;;;;;;9.77;3.42;;;;;;;20.96;49.82;101851.63;5034374;28;20029;-67
2023/06/10 08:49:46;;;;;;;6.72;2.90;;;;;;;21.11;49.75;101852.28;5016496;28;20029;-68
2023/06/10 08:52:16;;;;;;;11.27;3.33;;;;;;;21.08;50.33;101845.28;5016610;28;20482;-68
2023/06/10 08:54:43;;;;;;;10.68;3.40;;;;;;;21.02;49.83;101853.00;5014606;28;20108;-68
2023/06/10 08:57:09;;;;;;;4.50;2.90;;;;;;;21.18;49.89;101840.03;5013189;28;20443;-68
2023/06/10 08:59:35;;;;;;;7.47;3.50;;;;;;;20.96;50.02;101849.81;5030379;28;20120;-67
2023/06/10 09:02:02;;;;;;;10.23;3.13;;;;;;;21.11;50.56;101838.81;4997305;28;20052;-68
2023/06/10 09:04:27;;;;;;;10.60;3.60;;;;;;;21.20;50.00;101839.91;5013742;28;20021;-68
2023/06/10 09:06:53;;;;;;;5.82;3.25;;;;;;;21.25;49.88;101833.19;4994167;28;20495;-66
2023/06/10 09:09:20;;;;;;;7.53;2.85;;;;;;;21.53;48.78;101835.50;4994426;28;20085;-67
2023/06/10 09:11:45;;;;;;;7.85;3.40;;;;;;;21.48;48.97;101837.72;5001650;28;20026;-67
2023/06/10 09:14:12;;;;;;;4.85;2.60;;;;;;;21.75;48.77;101839.16;5016693;28;20034;-67
2023/06/10 09:16:38;;;;;;;6.50;3.40;;;;;;;21.56;49.06;101841.47;5013519;28;20481;-67
2023/06/10 09:19:07;;;;;;;7.15;3.00;;;;;;;21.47;49.44;101836.00;4996874;28;20116;-67
2023/06/10 09:21:34;;;;;;;8.82;3.78;;;;;;;21.51;49.24;101832.91;5013142;28;20037;-67
2023/06/10 09:23:59;;;;;;;9.68;3.75;;;;;;;21.77;48.68;101821.91;5013329;28;20458;-66
2023/06/10 09:26:28;;;;;;;9.57;3.90;;;;;;;21.96;48.53;101831.16;5014827;28;20022;-66
2023/06/10 09:28:58;;;;;;;7.32;3.35;;;;;;;21.79;48.31;101825.31;4997038;28;20026;-67
2023/06/10 09:31:23;;;;;;;8.77;3.75;;;;;;;;;;5014606;28;20109;-67
2023/06/10 09:33:48;;;;;;;10.70;3.30;;;;;;;22.08;48.17;101829.28;5014990;28;20105;-68
2023/06/10 09:36:23;;;;;;;7.00;3.45;;;;;;;22.19;48.14;101831.06;5014624;28;20037;-67
2023/06/10 09:38:50;;;;;;;11.27;4.22;;;;;;;22.12;47.92;101828.03;5012937;28;20059;-67
2023/06/10 09:41:18;;;;;;;6.05;3.38;;;;;;;22.27;47.93;101825.88;5013445;28;20356;-68
2023/06/10 09:43:46;;;;;;;7.70;3.80;;;;;;;22.28;47.87;101822.19;5013263;28;20026;-71
2023/06/10 09:46:18;;;;;;;12.32;4.30;;;;;;;22.67;46.90;101809.03;5014355;28;20033;-69
2023/06/10 09:48:45;;;;;;;9.38;4.10;;;;;;;22.82;46.37;101814.06;5013256;28;20043;-69
2023/06/10 09:51:11;;;;;;;7.03;3.45;;;;;;;22.69;47.50;101814.28;5013239;28;20044;-67
2023/06/10 09:53:37;;;;;;;8.82;3.55;;;;;;;22.46;47.08;101821.66;5014074;28;20136;-67
2023/06/10 09:56:02;;;;;;;7.07;3.17;;;;;;;22.71;47.04;101802.38;4996025;28;20099;-66
2023/06/10 09:58:38;;;;;;;14.10;3.90;;;;;;;22.70;46.91;101814.16;5012727;28;20038;-68
2023/06/10 10:01:09;;;;;;;6.90;3.55;;;;;;;22.58;47.46;101823.31;5014490;28;20038;-69
2023/06/10 10:03:43;;;;;;;6.82;3.53;;;;;;;22.96;46.60;101816.41;5012868;28;20022;-67
2023/06/10 10:06:09;;;;;;;10.00;4.47;;;;;;;23.03;46.88;101818.56;5013204;28;20044;-70
2023/06/10 10:08:34;;;;;;;8.50;4.15;;;;;;;22.91;46.46;101815.97;4995988;28;20030;-70
2023/06/10 10:11:00;;;;;;;8.73;3.85;;;;;;;23.08;46.05;101811.78;5014046;28;20025;-70
2023/06/10 10:13:26;;;;;;;9.52;3.67;;;;;;;22.84;46.73;101810.28;5014729;28;20028;-70
2023/06/10 10:15:52;;;;;;;8.55;3.20;;;;;;;22.83;46.52;101819.34;4997474;28;20033;-71
2023/06/10 10:18:22;;;;;;;8.52;3.70;;;;;;;23.40;45.64;101816.19;5014204;28;20038;-70
2023/06/10 10:20:51;;;;;;;7.30;3.85;;;;;;;23.22;46.35;101824.09;5014172;28;20497;-70
2023/06/10 10:23:21;;;;;;;9.10;3.40;;;;;;;23.47;45.98;101812.94;5013679;28;20021;-69
2023/06/10 10:25:52;;;;;;;9.25;4.03;;;;;;;23.33;46.34;101819.59;4996011;28;20105;-70
2023/06/10 10:28:20;;;;;;;11.82;3.90;;;;;;;23.77;45.70;101817.41;5012572;28;20026;-69
2023/06/10 10:30:49;;;;;;;9.30;4.05;;;;;;;23.79;44.53;101820.84;5012581;28;20338;-70
2023/06/10 10:33:28;;;;;;;9.23;3.70;;;;;;;23.82;44.34;101809.75;5029040;28;20080;-70
2023/06/10 10:35:54;;;;;;;9.38;3.55;;;;;;;23.81;45.54;101815.31;4995803;28;20376;-69
2023/06/10 10:38:21;;;;;;;9.25;4.47;;;;;;;24.15;45.19;101807.69;5012550;28;20061;-70
2023/06/10 10:40:47;;;;;;;8.85;3.80;;;;;;;23.76;45.41;101810.31;4996222;28;20037;-71
2023/06/10 10:43:13;;;;;;;6.13;3.70;;;;;;;23.83;45.67;101808.75;5013422;28;20026;-70
2023/06/10 10:45:38;;;;;;;9.15;4.25;;;;;;;24.20;44.80;101811.78;5013214;28;20471;-69
2023/06/10 10:48:11;;;;;;;11.77;4.10;;;;;;;24.38;44.19;101804.66;4995786;28;20025;-70
2023/06/10 10:50:37;;;;;;;6.95;4.10;;;;;;;24.49;43.78;101810.91;4996078;28;20056;-70
2023/06/10 10:53:05;;;;;;;10.10;4.38;;;;;;;24.75;43.65;101805.75;5012384;28;20041;-70
2023/06/10 10:55:31;;;;;;;5.60;3.42;;;;;;;24.60;44.22;101805.31;5012125;28;20026;-69
2023/06/10 10:58:03;;;;;;;9.75;3.60;;;;;;;24.23;44.63;101800.69;5012654;28;20095;-70
2023/06/10 11:00:37;;;;;;;10.23;3.60;;;;;;;24.25;44.87;101804.09;4996117;28;20038;-70
2023/06/10 11:03:02;;;;;;;8.40;3.67;;;;;;;24.77;42.95;101798.34;5013724;28;20076;-69
2023/06/10 11:05:44;;;;;;;5.43;3.20;;;;;;;24.65;43.12;101800.34;5013991;28;20038;-71
2023/06/10 11:08:09;;;;;;;;;;;;;;;24.68;42.74;101800.06;5013299;28;20471;-70
2023/06/10 11:10:42;;;;;;;7.60;3.72;;;;;;;24.91;42.57;101791.59;5012177;28;20000;-70
2023/06/10 11:13:14;;;;;;;8.27;3.90;;;;;;;24.87;42.83;101799.16;5011871;28;20117;-69
2023/06/10 11:15:46;;;;;;;7.72;3.63;;;;;;;24.73;43.57;101796.91;5012336;28;20351;-69
2023/06/10 11:18:27;;;;;;;9.35;3.65;;;;;;;24.76;42.78;101806.63;5012018;28;20053;-69
2023/06/10 11:20:57;;;;;;;8.93;4.35;;;;;;;24.55;42.82;101789.53;5014477;28;20102;-69